Time;durP1;ratioP1;P1;durP2;ratioP2;P2;SDS_P1;SDS_P2;PMS_P1;PMS_P2;Temp;Humidity;BMP_temperature;BMP_pressure;BME280_temperature;BME280_humidity;BME280_pressure;Samples;Min_cycle;Max_cycle;Signal;HPM_P1;HPM_P2
2023/09/05 00:00:12;;;;;;;;;;;;;;;18.22;84.67;95226.53;5115977;28;1000;-57
2023/09/05 00:02:41;;;;;;;;;;;;;;;18.24;83.59;95219.03;5115703;28;1884;-57
2023/09/05 00:05:08;;;;;;;;;;;;;;;18.28;83.91;95214.84;5115696;28;1060;-58
2023/09/05 00:07:37;;;;;;;;;;;;;;;18.28;84.05;95209.44;5115400;28;1037;-57
2023/09/05 00:10:04;;;;;;;;;;;;;;;18.22;84.90;95212.16;5115742;28;970;-58
2023/09/05 00:12:31;;;;;;;;;;;;;;;18.26;83.80;95221.53;5115640;28;1984;-58
2023/09/05 00:14:57;;;;;;;;;;;;;;;18.36;83.49;95218.41;5115759;28;1011;-58
2023/09/05 00:17:23;;;;;;;;;;;;;;;18.36;82.37;95208.41;5115664;28;1068;-58
2023/09/05 00:19:49;;;;;;;;;;;;;;;18.50;82.42;95217.38;5115394;28;989;-58
2023/09/05 00:22:15;;;;;;;;;;;;;;;18.51;81.84;95210.91;5130719;27;1158;-58
2023/09/05 00:24:43;;;;;;;;;;;;;;;18.57;82.33;95207.34;5136062;27;1037;-58
2023/09/05 00:27:13;;;;;;;;;;;;;;;18.48;83.31;95227.59;5136067;27;1033;-58
2023/09/05 00:29:39;;;;;;;;;;;;;;;18.36;83.85;95223.81;5135713;27;1856;-58
2023/09/05 00:32:05;;;;;;;;;;;;;;;18.37;83.72;95230.91;5135605;27;1910;-58
2023/09/05 00:34:33;;;;;;;;;;;;;;;18.39;84.17;95235.06;5135511;27;1024;-58
2023/09/05 00:37:00;;;;;;;;;;;;;;;18.48;82.38;95230.28;5135524;27;1047;-57
2023/09/05 00:39:30;;;;;;;;;;;;;;;18.47;82.26;95231.31;5135743;27;1114;-58
2023/09/05 00:41:56;;;;;;;;;;;;;;;18.48;82.70;95231.13;5135468;27;910;-58
2023/09/05 00:44:23;;;;;;;;;;;;;;;18.41;82.42;95229.44;5135673;27;1047;-58
2023/09/05 00:46:49;;;;;;;;;;;;;;;18.43;82.98;95222.78;5135341;27;1102;-58
2023/09/05 00:49:16;;;;;;;;;;;;;;;18.42;82.13;95212.16;5135272;27;1014;-58
2023/09/05 00:51:43;;;;;;;;;;;;;;;18.44;82.66;95210.94;5127509;27;1906;-58
2023/09/05 00:54:10;;;;;;;;;;;;;;;18.39;83.09;95207.19;5114933;28;960;-58
2023/09/05 00:56:37;;;;;;;;;;;;;;;18.37;82.51;95196.56;5114081;28;1008;-58
2023/09/05 00:59:04;;;;;;;;;;;;;;;18.33;83.21;95195.31;5114536;28;1317;-58
2023/09/05 01:01:30;;;;;;;;;;;;;;;18.30;83.79;95193.84;5114469;28;985;-58
2023/09/05 01:03:57;;;;;;;;;;;;;;;18.28;84.08;95190.50;5114469;28;975;-58
2023/09/05 01:06:46;;;;;;;;;;;;;;;18.30;83.89;95177.59;5114625;28;1177;-58
2023/09/05 01:09:18;;;;;;;;;;;;;;;18.27;83.85;95193.44;5114491;28;1060;-58
2023/09/05 01:11:44;;;;;;;;;;;;;;;18.27;84.31;95188.03;5114582;28;1929;-58
2023/09/05 01:14:10;;;;;;;;;;;;;;;18.30;84.26;95193.00;5114325;28;1045;-58
2023/09/05 01:16:45;;;;;;;;;;;;;;;18.36;83.97;95191.34;5125308;27;2558;-58
2023/09/05 01:19:12;;;;;;;;;;;;;;;18.31;85.09;95189.28;5134923;27;1033;-58
2023/09/05 01:21:40;;;;;;;;;;;;;;;18.27;84.69;95196.16;5124668;27;1216;-58
2023/09/05 01:24:17;;;;;;;;;;;;;;;18.36;84.85;95184.03;5114232;28;1052;-58
2023/09/05 01:26:43;;;;;;;;;;;;;;;18.33;84.44;95181.78;5114083;28;920;-58
2023/09/05 01:29:11;;;;;;;;;;;;;;;18.23;84.94;95182.19;5113970;28;1107;-58
2023/09/05 01:31:38;;;;;;;;;;;;;;;18.24;84.88;95164.91;5114206;28;1910;-58
2023/09/05 01:34:04;;;;;;;;;;;;;;;18.26;84.59;95180.94;5114265;28;957;-58
2023/09/05 01:36:30;;;;;;;;;;;;;;;18.23;84.20;95186.75;5095820;28;1092;-58
2023/09/05 01:38:56;;;;;;;;;;;;;;;18.26;83.96;95184.47;5114021;28;1052;-58
2023/09/05 01:41:22;;;;;;;;;;;;;;;18.25;83.55;95177.41;5113897;28;1037;-58
2023/09/05 01:43:48;;;;;;;;;;;;;;;18.23;84.69;95182.19;5113826;28;1047;-58
2023/09/05 01:46:14;;;;;;;;;;;;;;;18.22;83.95;95198.63;5113702;28;1021;-58
2023/09/05 01:48:40;;;;;;;;;;;;;;;18.23;83.59;95205.69;5113967;28;1059;-58
2023/09/05 01:51:06;;;;;;;;;;;;;;;18.20;83.78;95201.53;5116443;27;1906;-58
2023/09/05 01:53:32;;;;;;;;;;;;;;;18.24;83.44;95205.50;5134503;27;968;-58
2023/09/05 01:55:58;;;;;;;;;;;;;;;18.26;84.10;95197.16;5134315;28;956;-58
2023/09/05 01:58:24;;;;;;;;;;;;;;;18.22;83.06;95194.06;5134384;28;970;-58
2023/09/05 02:00:50;;;;;;;;;;;;;;;18.14;84.03;95195.09;5134488;28;1048;-58
2023/09/05 02:03:16;;;;;;;;;;;;;;;18.21;83.81;95194.25;5116244;28;1056;-58
2023/09/05 02:05:42;;;;;;;;;;;;;;;18.18;83.61;95194.69;5134304;28;1004;-58
2023/09/05 02:08:08;;;;;;;;;;;;;;;18.16;84.02;95196.75;5136804;27;974;-59
2023/09/05 02:10:34;;;;;;;;;;;;;;;18.16;83.67;95203.00;5138244;27;2028;-58
2023/09/05 02:13:00;;;;;;;;;;;;;;;18.26;83.63;95198.00;5138393;27;977;-59
2023/09/05 02:15:26;;;;;;;;;;;;;;;18.23;83.47;95203.84;5138503;27;976;-59
2023/09/05 02:17:55;;;;;;;;;;;;;;;18.19;83.63;95196.34;5138585;27;967;-59
2023/09/05 02:20:22;;;;;;;;;;;;;;;18.16;83.97;95194.06;5138179;27;1087;-58
2023/09/05 02:22:48;;;;;;;;;;;;;;;18.08;84.79;95185.09;5138062;27;1216;-58
2023/09/05 02:25:14;;;;;;;;;;;;;;;18.08;84.19;95181.53;5138163;27;970;-58
2023/09/05 02:27:40;;;;;;;;;;;;;;;18.07;83.43;95179.88;5138013;27;1086;-57
2023/09/05 02:30:07;;;;;;;;;;;;;;;18.10;82.82;95182.19;5138349;27;971;-58
2023/09/05 02:32:33;;;;;;;;;;;;;;;18.03;82.87;95176.75;5138018;27;1913;-58
2023/09/05 02:34:59;;;;;;;;;;;;;;;18.04;82.60;95175.75;5138237;27;953;-58
2023/09/05 02:37:26;;;;;;;;;;;;;;;18.07;82.70;95185.31;5137839;27;1024;-58
2023/09/05 02:39:52;;;;;;;;;;;;;;;18.07;81.97;95180.72;5137968;27;1059;-58
2023/09/05 02:42:18;;;;;;;;;;;;;;;18.09;81.52;95183.22;5137698;27;949;-58
2023/09/05 02:44:44;;;;;;;;;;;;;;;18.08;82.29;95179.69;5138076;27;1060;-58
2023/09/05 02:47:10;;;;;;;;;;;;;;;18.05;82.33;95184.69;5137825;27;1031;-58
2023/09/05 02:49:36;;;;;;;;;;;;;;;18.07;82.11;95188.81;5137828;27;1056;-58
2023/09/05 02:52:02;;;;;;;;;;;;;;;18.10;81.75;95187.59;5126985;27;1914;-58
2023/09/05 02:54:28;;;;;;;;;;;;;;;18.22;80.94;95195.94;5116981;28;1020;-57
2023/09/05 02:56:55;;;;;;;;;;;;;;;18.19;81.02;95197.16;5117184;28;945;-57
2023/09/05 02:59:21;;;;;;;;;;;;;;;18.19;81.13;95191.75;5117150;28;1030;-58
2023/09/05 03:01:47;;;;;;;;;;;;;;;18.21;80.92;95200.50;5116878;28;1045;-58
2023/09/05 03:04:14;;;;;;;;;;;;;;;18.24;80.65;95189.25;5116938;28;991;-58
2023/09/05 03:06:40;;;;;;;;;;;;;;;18.36;80.98;95189.47;5116923;28;962;-58
2023/09/05 03:09:06;;;;;;;;;;;;;;;18.28;81.03;95179.69;5117081;28;1013;-57
2023/09/05 03:11:32;;;;;;;;;;;;;;;18.16;81.88;95196.75;5116826;28;1914;-59
2023/09/05 03:13:58;;;;;;;;;;;;;;;18.18;81.81;95189.28;5116892;28;970;-58
2023/09/05 03:16:24;;;;;;;;;;;;;;;18.19;82.08;95185.50;5116530;28;1103;-59
2023/09/05 03:18:50;;;;;;;;;;;;;;;18.17;81.61;95183.00;5115986;28;959;-60
2023/09/05 03:21:17;;;;;;;;;;;;;;;18.17;81.72;95193.81;5109355;28;1274;-58
2023/09/05 03:23:43;;;;;;;;;;;;;;;18.16;81.35;95194.88;5096286;28;1036;-58
2023/09/05 03:26:09;;;;;;;;;;;;;;;18.17;81.18;95198.41;5096222;28;1056;-58
2023/09/05 03:28:39;;;;;;;;;;;;;;;18.16;81.14;95202.19;5096170;28;1040;-58
2023/09/05 03:31:05;;;;;;;;;;;;;;;18.10;81.48;95193.00;5096175;28;1914;-58
2023/09/05 03:33:31;;;;;;;;;;;;;;;18.18;81.06;95198.22;5096078;28;1043;-58
2023/09/05 03:35:57;;;;;;;;;;;;;;;18.13;81.13;95198.81;5095798;28;1029;-57
2023/09/05 03:38:23;;;;;;;;;;;;;;;18.12;81.11;95201.75;5095788;28;1045;-58
2023/09/05 03:40:49;;;;;;;;;;;;;;;18.09;81.05;95204.88;5095686;28;1052;-58
2023/09/05 03:43:15;;;;;;;;;;;;;;;18.07;81.56;95207.78;5095632;28;1096;-58
2023/09/05 03:45:41;;;;;;;;;;;;;;;18.11;81.02;95206.31;5077658;28;1061;-58
2023/09/05 03:48:07;;;;;;;;;;;;;;;18.12;80.96;95210.69;5095858;28;1044;-58
2023/09/05 03:50:33;;;;;;;;;;;;;;;18.19;80.49;95204.44;5095396;28;1127;-58
2023/09/05 03:52:59;;;;;;;;;;;;;;;18.18;80.29;95203.63;5113796;28;1910;-59
2023/09/05 03:55:25;;;;;;;;;;;;;;;18.13;80.32;95206.94;5115738;28;1056;-59
2023/09/05 03:57:51;;;;;;;;;;;;;;;18.20;80.12;95206.13;5115812;28;1099;-59
2023/09/05 04:00:17;;;;;;;;;;;;;;;18.26;80.06;95216.13;5115697;28;1032;-59
2023/09/05 04:02:43;;;;;;;;;;;;;;;18.27;79.24;95231.31;5116025;28;1184;-59
2023/09/05 04:05:10;;;;;;;;;;;;;;;18.29;78.96;95226.53;5115998;28;970;-58
2023/09/05 04:07:36;;;;;;;;;;;;;;;18.31;78.78;95232.56;5115659;28;1123;-59
2023/09/05 04:10:03;;;;;;;;;;;;;;;18.25;79.26;95236.94;5115526;28;1047;-59
2023/09/05 04:12:29;;;;;;;;;;;;;;;18.23;79.07;95227.34;5115601;28;1910;-59
2023/09/05 04:14:55;;;;;;;;;;;;;;;18.25;79.25;95227.97;5115523;28;972;-58
2023/09/05 04:17:22;;;;;;;;;;;;;;;18.23;79.97;95236.31;5097419;28;1119;-58
2023/09/05 04:19:51;;;;;;;;;;;;;;;18.25;79.15;95217.13;5097351;28;1201;-58
2023/09/05 04:22:18;;;;;;;;;;;;;;;18.25;78.59;95220.72;5131001;27;1174;-58
2023/09/05 04:24:45;;;;;;;;;;;;;;;18.31;78.04;95228.00;5135842;27;1043;-58
2023/09/05 04:27:11;;;;;;;;;;;;;;;18.28;78.43;95222.97;5117632;27;1098;-58
2023/09/05 04:29:37;;;;;;;;;;;;;;;18.27;78.53;95215.91;5135760;27;1043;-58
2023/09/05 04:32:03;;;;;;;;;;;;;;;18.40;78.21;95220.50;5134907;27;1989;-58
2023/09/05 04:34:29;;;;;;;;;;;;;;;18.46;77.80;95227.78;5135591;27;1048;-58
2023/09/05 04:36:56;;;;;;;;;;;;;;;18.52;78.16;95228.84;5135637;27;1043;-58
2023/09/05 04:39:22;;;;;;;;;;;;;;;18.70;77.12;95239.00;5135494;27;967;-57
2023/09/05 04:41:48;;;;;;;;;;;;;;;18.84;76.58;95238.00;5135822;27;987;-57
2023/09/05 04:44:14;;;;;;;;;;;;;;;18.77;76.11;95236.31;5135442;27;1126;-59
2023/09/05 04:46:45;;;;;;;;;;;;;;;18.75;76.82;95227.56;5135360;27;1119;-59
2023/09/05 04:49:11;;;;;;;;;;;;;;;18.70;77.37;95220.91;5135338;27;1028;-58
2023/09/05 04:51:37;;;;;;;;;;;;;;;18.59;77.74;95237.78;5128087;27;2008;-58
2023/09/05 04:54:05;;;;;;;;;;;;;;;18.76;78.21;95242.75;5114917;28;1028;-58
2023/09/05 04:56:31;;;;;;;;;;;;;;;18.85;77.05;95239.66;5115053;28;962;-58
2023/09/05 04:58:57;;;;;;;;;;;;;;;18.94;76.64;95236.75;5114888;28;1039;-57
2023/09/05 05:01:23;;;;;;;;;;;;;;;19.00;77.40;95246.72;5114792;28;1010;-58
2023/09/05 05:03:49;;;;;;;;;;;;;;;19.01;77.64;95241.09;5114562;28;1000;-58
2023/09/05 05:06:15;;;;;;;;;;;;;;;19.07;76.29;95240.25;5114440;28;1089;-58
2023/09/05 05:08:41;;;;;;;;;;;;;;;19.14;76.60;95250.22;5114443;28;1976;-58
2023/09/05 05:11:07;;;;;;;;;;;;;;;19.20;76.85;95254.78;5114590;28;1982;-57
2023/09/05 05:13:33;;;;;;;;;;;;;;;19.28;75.42;95260.84;5114521;28;992;-58
2023/09/05 05:15:59;;;;;;;;;;;;;;;19.37;75.08;95257.88;5114695;28;1028;-58
2023/09/05 05:18:25;;;;;;;;;;;;;;;19.49;74.87;95264.31;5114420;28;1056;-58
2023/09/05 05:20:51;;;;;;;;;;;;;;;19.58;74.29;95260.31;5092835;28;1165;-58
2023/09/05 05:23:17;;;;;;;;;;;;;;;19.74;73.41;95253.59;5093942;28;1315;-57
2023/09/05 05:25:43;;;;;;;;;;;;;;;19.79;73.52;95269.25;5093832;28;1105;-57
2023/09/05 05:28:09;;;;;;;;;;;;;;;19.83;72.56;95252.31;5094219;28;988;-57
2023/09/05 05:30:36;;;;;;;;;;;;;;;19.93;72.12;95251.03;5093745;28;1084;-58
2023/09/05 05:33:02;;;;;;;;;;;;;;;19.79;72.32;95240.22;5093656;28;1906;-57
2023/09/05 05:35:28;;;;;;;;;;;;;;;19.77;72.48;95242.34;5093553;28;1103;-57
2023/09/05 05:37:54;;;;;;;;;;;;;;;19.93;72.03;95240.16;5075543;28;1029;-57
2023/09/05 05:40:21;;;;;;;;;;;;;;;20.17;70.96;95238.56;5093514;28;1091;-58
2023/09/05 05:42:47;;;;;;;;;;;;;;;20.22;70.64;95234.16;5093498;28;960;-57
2023/09/05 05:45:14;;;;;;;;;;;;;;;20.18;70.50;95246.47;5093598;28;1904;-58
2023/09/05 05:47:40;;;;;;;;;;;;;;;20.29;71.45;95237.63;5093597;28;953;-58
2023/09/05 05:50:08;;;;;;;;;;;;;;;20.42;71.31;95239.41;5075648;28;1040;-58
2023/09/05 05:52:35;;;;;;;;;;;;;;;20.54;70.44;95236.81;5108136;28;1910;-58
2023/09/05 05:55:02;;;;;;;;;;;;;;;20.65;70.03;95235.31;5114072;28;1109;-58
2023/09/05 05:57:29;;;;;;;;;;;;;;;20.72;69.85;95244.22;5113649;28;1040;-58
2023/09/05 05:59:55;;;;;;;;;;;;;;;20.80;70.44;95237.69;5113713;28;1051;-58
2023/09/05 06:02:20;;;;;;;;;;;;;;;20.86;68.72;95239.50;5113615;28;1036;-58
2023/09/05 06:04:46;;;;;;;;;;;;;;;20.85;68.64;95238.69;5113819;28;968;-58
2023/09/05 06:07:12;;;;;;;;;;;;;;;20.85;69.18;95227.00;5113530;28;1039;-58
2023/09/05 06:09:39;;;;;;;;;;;;;;;20.82;68.26;95230.13;5113877;28;1035;-58
2023/09/05 06:12:05;;;;;;;;;;;;;;;20.97;67.87;95227.09;5113673;28;1906;-58
2023/09/05 06:14:31;;;;;;;;;;;;;;;21.15;68.47;95235.25;5113824;28;980;-58
2023/09/05 06:16:57;;;;;;;;;;;;;;;21.20;68.19;95231.84;5113696;28;937;-58
2023/09/05 06:19:23;;;;;;;;;;;;;;;21.39;67.46;95236.22;5113543;28;1082;-58
2023/09/05 06:21:49;;;;;;;;;;;;;;;21.47;67.87;95246.00;5124896;28;1201;-58
2023/09/05 06:24:16;;;;;;;;;;;;;;;21.57;66.49;95253.63;5134315;28;1038;-58
2023/09/05 06:26:44;;;;;;;;;;;;;;;21.63;66.86;95241.88;5133998;28;1027;-58
2023/09/05 06:29:11;;;;;;;;;;;;;;;21.61;66.17;95247.53;5133885;28;1119;-58
2023/09/05 06:31:37;;;;;;;;;;;;;;;21.74;67.37;95241.09;5134102;28;1905;-58
2023/09/05 06:34:02;;;;;;;;;;;;;;;21.88;65.73;95240.94;5134050;28;1042;-58
2023/09/05 06:36:28;;;;;;;;;;;;;;;21.58;66.00;95253.41;5133805;28;1029;-58
2023/09/05 06:38:56;;;;;;;;;;;;;;;21.67;67.31;95251.22;5134235;28;974;-58
2023/09/05 06:41:22;;;;;;;;;;;;;;;21.90;66.88;95244.25;5133920;28;1027;-58
2023/09/05 06:43:48;;;;;;;;;;;;;;;21.84;66.51;95241.38;5134387;28;981;-58
2023/09/05 06:46:14;;;;;;;;;;;;;;;21.91;66.33;95252.19;5133938;28;970;-58
2023/09/05 06:48:41;;;;;;;;;;;;;;;21.84;65.28;95249.53;5133829;28;1182;-58
2023/09/05 06:51:07;;;;;;;;;;;;;;;21.93;64.46;95246.50;5130782;28;1992;-58
2023/09/05 06:53:33;;;;;;;;;;;;;;;22.15;64.07;95249.56;5113477;28;975;-57
2023/09/05 06:55:59;;;;;;;;;;;;;;;21.84;65.25;95254.16;5116910;28;1043;-57
2023/09/05 06:58:26;;;;;;;;;;;;;;;21.83;65.33;95255.22;5117279;28;1036;-57
2023/09/05 07:00:55;;;;;;;;;;;;;;;21.95;65.13;95256.09;5099012;28;1036;-57
2023/09/05 07:03:22;;;;;;;;;;;;;;;21.92;66.59;95248.38;5116856;28;1092;-58
2023/09/05 07:05:48;;;;;;;;;;;;;;;22.12;64.28;95247.28;5117096;28;1574;-58
2023/09/05 07:08:14;;;;;;;;;;;;;;;22.17;63.58;95244.69;5117071;28;987;-58
2023/09/05 07:10:40;;;;;;;;;;;;;;;22.28;63.02;95245.84;5116784;28;1032;-57
2023/09/05 07:13:06;;;;;;;;;;;;;;;22.40;62.96;95253.00;5116720;28;1906;-58
2023/09/05 07:15:32;;;;;;;;;;;;;;;22.44;62.31;95255.25;5115317;28;2608;-58
2023/09/05 07:17:58;;;;;;;;;;;;;;;22.45;63.67;95252.28;5116893;28;1052;-58
2023/09/05 07:20:24;;;;;;;;;;;;;;;22.59;62.51;95255.63;5116406;28;910;-58
2023/09/05 07:22:50;;;;;;;;;;;;;;;22.30;63.40;95260.88;5116663;28;1221;-58
2023/09/05 07:25:17;;;;;;;;;;;;;;;22.17;63.85;95271.94;5116439;28;1103;-58
2023/09/05 07:27:43;;;;;;;;;;;;;;;22.01;65.61;95263.34;5116799;28;1033;-58
2023/09/05 07:30:09;;;;;;;;;;;;;;;21.67;65.78;95259.41;5116382;28;1032;-58
2023/09/05 07:32:35;;;;;;;;;;;;;;;21.44;66.73;95273.69;5116173;28;1938;-58
2023/09/05 07:35:03;;;;;;;;;;;;;;;21.22;68.07;95286.84;5116186;28;1084;-57
2023/09/05 07:37:29;;;;;;;;;;;;;;;21.14;70.24;95287.13;5116616;28;1232;-58
2023/09/05 07:39:55;;;;;;;;;;;;;;;21.16;68.68;95288.56;5116450;28;1079;-58
2023/09/05 07:42:21;;;;;;;;;;;;;;;21.54;67.53;95279.41;5116116;28;1013;-58
2023/09/05 07:44:47;;;;;;;;;;;;;;;21.54;67.71;95284.84;5116441;28;1079;-58
2023/09/05 07:47:13;;;;;;;;;;;;;;;21.44;67.36;95296.25;5116012;28;962;-59
2023/09/05 07:49:41;;;;;;;;;;;;;;;21.18;68.26;95296.50;5116214;28;981;-58
2023/09/05 07:52:07;;;;;;;;;;;;;;;21.14;68.74;95285.25;5127006;27;1917;-58
2023/09/05 07:54:35;;;;;;;;;;;;;;;21.05;68.85;95289.28;5136426;27;1039;-57
2023/09/05 07:57:02;;;;;;;;;;;;;;;21.15;68.81;95284.19;5136686;27;1065;-58
2023/09/05 07:59:28;;;;;;;;;;;;;;;21.30;69.12;95299.31;5135496;27;1095;-58
2023/09/05 08:01:57;;;;;;;;;;;;;;;21.20;70.75;95292.50;5136183;27;1014;-58
2023/09/05 08:04:23;;;;;;;;;;;;;;;21.14;69.44;95290.69;5136503;27;997;-58
2023/09/05 08:06:49;;;;;;;;;;;;;;;20.99;70.07;95299.19;5136284;27;994;-58
2023/09/05 08:09:15;;;;;;;;;;;;;;;20.86;70.95;95299.28;5135913;27;1131;-58
2023/09/05 08:11:41;;;;;;;;;;;;;;;20.86;70.79;95296.56;5135515;27;1987;-58
2023/09/05 08:14:07;;;;;;;;;;;;;;;20.81;71.57;95302.69;5136102;27;972;-58
2023/09/05 08:16:34;;;;;;;;;;;;;;;20.81;71.47;95302.69;5135899;27;1106;-58
2023/09/05 08:19:00;;;;;;;;;;;;;;;20.81;70.75;95305.41;5135946;27;1016;-58
2023/09/05 08:21:26;;;;;;;;;;;;;;;20.71;72.44;95315.09;5135953;27;1217;-58
2023/09/05 08:23:53;;;;;;;;;;;;;;;20.72;71.45;95312.16;5135848;27;1043;-57
2023/09/05 08:26:19;;;;;;;;;;;;;;;20.78;72.97;95310.44;5136033;27;1030;-58
2023/09/05 08:28:45;;;;;;;;;;;;;;;20.80;71.05;95306.44;5135919;27;963;-58
2023/09/05 08:31:12;;;;;;;;;;;;;;;20.87;72.18;95306.41;5135888;27;1913;-58
2023/09/05 08:33:38;;;;;;;;;;;;;;;20.86;72.52;95321.03;5117480;27;987;-58
2023/09/05 08:36:05;;;;;;;;;;;;;;;20.84;72.77;95317.69;5135850;27;965;-58
2023/09/05 08:38:31;;;;;;;;;;;;;;;20.88;71.02;95320.81;5135818;27;948;-58
2023/09/05 08:41:01;;;;;;;;;;;;;;;20.98;70.32;95315.69;5135851;27;1032;-58
2023/09/05 08:43:27;;;;;;;;;;;;;;;21.01;70.95;95318.81;5135450;27;1321;-58
2023/09/05 08:45:54;;;;;;;;;;;;;;;21.02;71.00;95319.66;5135416;27;1044;-58
2023/09/05 08:48:20;;;;;;;;;;;;;;;21.11;70.75;95318.31;5135627;27;1032;-58
2023/09/05 08:50:47;;;;;;;;;;;;;;;21.19;70.49;95318.03;5135661;27;994;-58
2023/09/05 08:53:14;;;;;;;;;;;;;;;21.09;70.47;95325.03;5135161;27;1966;-58
2023/09/05 08:55:41;;;;;;;;;;;;;;;21.11;69.90;95328.34;5135507;27;1001;-58
2023/09/05 08:58:12;;;;;;;;;;;;;;;21.15;69.24;95321.41;5135193;27;910;-58
2023/09/05 09:00:38;;;;;;;;;;;;;;;21.15;68.16;95321.41;5135083;27;1107;-58
2023/09/05 09:03:06;;;;;;;;;;;;;;;21.20;68.14;95316.97;5135457;27;981;-57
2023/09/05 09:05:33;;;;;;;;;;;;;;;21.21;68.76;95320.53;5135194;27;1018;-58
2023/09/05 09:07:59;;;;;;;;;;;;;;;21.10;68.46;95330.25;5135372;27;1040;-58
2023/09/05 09:10:25;;;;;;;;;;;;;;;21.11;68.69;95329.16;5135195;27;983;-58
2023/09/05 09:12:54;;;;;;;;;;;;;;;21.01;68.99;95335.13;5134865;27;1902;-58
2023/09/05 09:15:23;;;;;;;;;;;;;;;20.99;68.79;95330.97;5134754;27;1090;-58
2023/09/05 09:17:50;;;;;;;;;;;;;;;20.99;69.42;95329.06;5134251;27;1035;-58
2023/09/05 09:20:19;;;;;;;;;;;;;;;20.99;69.76;95322.81;5134942;27;1040;-58
2023/09/05 09:22:49;;;;;;;;;;;;;;;21.01;69.08;95328.84;5115009;27;1153;-58
2023/09/05 09:25:20;;;;;;;;;;;;;;;20.99;69.50;95331.78;5114223;28;1093;-58
2023/09/05 09:27:50;;;;;;;;;;;;;;;20.95;69.07;95333.28;5114134;28;966;-58
2023/09/05 09:30:20;;;;;;;;;;;;;;;20.92;69.86;95328.28;5114353;28;965;-58
2023/09/05 09:32:49;;;;;;;;;;;;;;;21.00;68.67;95338.03;5114314;28;1976;-58
2023/09/05 09:35:15;;;;;;;;;;;;;;;20.91;69.28;95331.25;5114027;28;1044;-58
2023/09/05 09:37:41;;;;;;;;;;;;;;;20.88;68.09;95334.41;5114272;28;1048;-57
2023/09/05 09:40:07;;;;;;;;;;;;;;;20.85;68.94;95331.06;5113997;28;1047;-58
2023/09/05 09:42:34;;;;;;;;;;;;;;;20.90;68.46;95329.56;5095722;28;980;-58
2023/09/05 09:45:00;;;;;;;;;;;;;;;20.95;68.52;95335.19;5113917;28;1036;-58
2023/09/05 09:47:27;;;;;;;;;;;;;;;20.99;68.94;95330.97;5114001;28;988;-58
2023/09/05 09:49:53;;;;;;;;;;;;;;;21.09;69.70;95331.28;5113823;28;1111;-58
2023/09/05 09:52:22;;;;;;;;;;;;;;;21.12;69.59;95339.00;5113540;28;1918;-58
2023/09/05 09:54:53;;;;;;;;;;;;;;;21.18;67.50;95337.28;5114348;28;1055;-58
2023/09/05 09:57:39;;;;;;;;;;;;;;;21.33;67.13;95318.72;5113700;28;996;-58
2023/09/05 10:00:15;;;;;;;;;;;;;;;21.43;66.93;95310.06;5113758;28;1032;-57
2023/09/05 10:02:45;;;;;;;;;;;;;;;21.50;66.77;95313.56;5113726;28;1067;-58
2023/09/05 10:05:12;;;;;;;;;;;;;;;21.62;67.51;95308.22;5113710;28;1048;-58
2023/09/05 10:07:38;;;;;;;;;;;;;;;21.71;66.75;95306.84;5113591;28;1071;-58
2023/09/05 10:10:04;;;;;;;;;;;;;;;21.78;65.07;95291.28;5113942;28;1035;-58
2023/09/05 10:12:31;;;;;;;;;;;;;;;21.71;64.07;95295.97;5116516;27;2576;-57
2023/09/05 10:15:00;;;;;;;;;;;;;;;21.68;64.51;95295.59;5134135;28;1028;-58
2023/09/05 10:17:26;;;;;;;;;;;;;;;21.68;65.64;95292.88;5133993;28;1205;-58
2023/09/05 10:19:53;;;;;;;;;;;;;;;21.64;65.11;95290.63;5144747;27;2484;-58
2023/09/05 10:22:21;;;;;;;;;;;;;;;21.88;64.75;95288.03;5138486;27;1208;-58
2023/09/05 10:24:47;;;;;;;;;;;;;;;22.18;64.41;95288.03;5134228;28;985;-58
2023/09/05 10:27:13;;;;;;;;;;;;;;;22.53;63.49;95287.34;5133896;28;1958;-57
2023/09/05 10:29:43;;;;;;;;;;;;;;;22.85;62.03;95284.34;5137253;27;1036;-58
2023/09/05 10:32:14;;;;;;;;;;;;;;;23.18;61.37;95288.44;5137965;27;1997;-58
2023/09/05 10:34:50;;;;;;;;;;;;;;;23.49;58.69;95292.72;5137904;27;1084;-56
2023/09/05 10:37:21;;;;;;;;;;;;;;;23.63;57.96;95290.53;5137902;27;1021;-57
2023/09/05 10:39:47;;;;;;;;;;;;;;;23.67;57.91;95279.97;5138146;27;1033;-57
2023/09/05 10:42:14;;;;;;;;;;;;;;;23.51;57.11;95287.84;5119538;27;1209;-57
2023/09/05 10:44:44;;;;;;;;;;;;;;;23.76;57.31;95278.53;5137768;27;988;-57
2023/09/05 10:47:24;;;;;;;;;;;;;;;23.92;57.51;95283.28;5138124;27;1091;-57
2023/09/05 10:49:56;;;;;;;;;;;;;;;23.89;55.08;95285.69;5137944;27;977;-57
2023/09/05 10:52:22;;;;;;;;;;;;;;;23.91;55.51;95284.34;5137499;27;1981;-57
2023/09/05 10:54:48;;;;;;;;;;;;;;;24.01;55.05;95286.47;5137634;27;944;-57
2023/09/05 10:57:33;;;;;;;;;;;;;;;23.99;55.84;95290.50;5137625;27;967;-57
2023/09/05 10:59:59;;;;;;;;;;;;;;;23.94;55.12;95272.97;5137696;27;1208;-57
2023/09/05 11:02:25;;;;;;;;;;;;;;;24.07;55.25;95285.47;5137591;27;974;-57
2023/09/05 11:04:53;;;;;;;;;;;;;;;24.22;55.91;95287.69;5119178;27;1158;-57
2023/09/05 11:07:21;;;;;;;;;;;;;;;24.26;54.90;95291.59;5137540;27;985;-57
2023/09/05 11:09:51;;;;;;;;;;;;;;;24.12;54.77;95290.22;5137609;27;965;-57
2023/09/05 11:12:18;;;;;;;;;;;;;;;24.24;54.79;95279.25;5137126;27;1977;-57
2023/09/05 11:14:45;;;;;;;;;;;;;;;24.11;55.16;95281.22;5137196;27;980;-57
2023/09/05 11:17:11;;;;;;;;;;;;;;;24.22;54.72;95286.88;5137402;27;1146;-57
2023/09/05 11:19:40;;;;;;;;;;;;;;;24.28;54.73;95283.16;5119294;27;1076;-57
2023/09/05 11:22:21;;;;;;;;;;;;;;;24.55;53.98;95287.00;5137051;27;1220;-57
2023/09/05 11:24:51;;;;;;;;;;;;;;;24.57;52.62;95294.94;5136957;27;1094;-57
2023/09/05 11:27:19;;;;;;;;;;;;;;;24.39;51.66;95297.84;5137297;27;986;-57
2023/09/05 11:29:45;;;;;;;;;;;;;;;24.38;53.36;95297.03;5136986;27;1015;-57
2023/09/05 11:32:14;;;;;;;;;;;;;;;24.54;51.71;95296.25;5136877;27;1914;-57
2023/09/05 11:34:41;;;;;;;;;;;;;;;24.46;50.90;95291.16;5136990;27;969;-56
2023/09/05 11:37:07;;;;;;;;;;;;;;;24.26;52.43;95293.50;5137155;27;1036;-56
2023/09/05 11:39:33;;;;;;;;;;;;;;;24.10;52.61;95300.56;5136400;27;1034;-57
2023/09/05 11:41:59;;;;;;;;;;;;;;;23.84;52.54;95302.75;5136729;27;1032;-57
2023/09/05 11:44:37;;;;;;;;;;;;;;;23.78;53.10;95309.16;5136587;27;1079;-57
2023/09/05 11:47:03;;;;;;;;;;;;;;;23.81;53.72;95300.53;5136874;27;1044;-56
2023/09/05 11:49:30;;;;;;;;;;;;;;;23.84;53.37;95301.94;5136563;27;1049;-57
2023/09/05 11:51:58;;;;;;;;;;;;;;;23.80;53.44;95301.59;5126585;27;1910;-57
2023/09/05 11:54:24;;;;;;;;;;;;;;;23.78;53.82;95312.75;5116171;28;975;-57
2023/09/05 11:56:50;;;;;;;;;;;;;;;23.61;52.99;95300.06;5116464;28;1044;-57
2023/09/05 11:59:17;;;;;;;;;;;;;;;23.61;53.06;95303.59;5115788;28;1094;-57
2023/09/05 12:01:43;;;;;;;;;;;;;;;23.51;53.86;95298.75;5115928;28;1056;-57
2023/09/05 12:04:09;;;;;;;;;;;;;;;23.51;52.94;95295.22;5115855;28;1107;-57
2023/09/05 12:06:35;;;;;;;;;;;;;;;23.51;52.87;95293.31;5115915;28;1068;-57
2023/09/05 12:09:01;;;;;;;;;;;;;;;23.62;53.40;95293.50;5115975;28;1025;-57
2023/09/05 12:11:27;;;;;;;;;;;;;;;23.67;52.88;95296.34;5115735;28;1909;-57
2023/09/05 12:13:56;;;;;;;;;;;;;;;23.74;52.50;95286.16;5115559;28;1091;-56
2023/09/05 12:16:23;;;;;;;;;;;;;;;23.68;53.63;95292.56;5115454;28;1040;-57
2023/09/05 12:18:59;;;;;;;;;;;;;;;23.78;53.62;95287.31;5115603;28;1084;-57
2023/09/05 12:21:26;;;;;;;;;;;;;;;23.63;52.68;95289.72;5107293;28;1153;-57
2023/09/05 12:23:52;;;;;;;;;;;;;;;23.55;53.08;95282.75;5095153;28;1008;-57
2023/09/05 12:26:18;;;;;;;;;;;;;;;23.63;52.65;95276.09;5095138;28;1061;-57
2023/09/05 12:28:58;;;;;;;;;;;;;;;23.65;52.53;95274.75;5095153;28;1041;-57
2023/09/05 12:31:24;;;;;;;;;;;;;;;23.59;52.37;95278.47;5095001;28;1953;-57
2023/09/05 12:33:50;;;;;;;;;;;;;;;23.49;52.33;95272.78;5094721;28;1084;-57
2023/09/05 12:36:16;;;;;;;;;;;;;;;23.49;51.06;95273.59;5094620;28;1056;-56
2023/09/05 12:38:42;;;;;;;;;;;;;;;23.44;52.11;95270.75;5094949;28;988;-57
2023/09/05 12:41:08;;;;;;;;;;;;;;;23.52;53.29;95270.41;5094791;28;1056;-58
2023/09/05 12:43:35;;;;;;;;;;;;;;;23.47;52.68;95275.75;5094680;28;1033;-58
2023/09/05 12:46:03;;;;;;;;;;;;;;;23.33;53.67;95275.16;5076670;28;965;-58
2023/09/05 12:48:29;;;;;;;;;;;;;;;23.18;54.74;95283.84;5094624;28;996;-58
2023/09/05 12:50:55;;;;;;;;;;;;;;;23.10;54.43;95283.34;5095483;28;1212;-59
2023/09/05 12:53:21;;;;;;;;;;;;;;;23.04;54.18;95290.56;5114019;28;1975;-57
2023/09/05 12:55:48;;;;;;;;;;;;;;;22.99;53.55;95284.94;5114773;28;1041;-58
2023/09/05 12:58:14;;;;;;;;;;;;;;;22.88;55.03;95286.63;5114798;28;1045;-57